sensor_id;sensor_type;location;lat;lon;timestamp;pressure;altitude;pressure_sealevel;temperature;humidity
26937;BME280;14495;48.116;11.676;2022-10-16T00:02:19;95610.00;;;13.04;100.00
26937;BME280;14495;48.116;11.676;2022-10-16T00:04:44;95607.63;;;12.88;100.00
26937;BME280;14495;48.116;11.676;2022-10-16T00:07:09;95603.63;;;12.95;100.00
26937;BME280;14495;48.116;11.676;2022-10-16T00:09:35;95598.88;;;13.00;100.00
26937;BME280;14495;48.116;11.676;2022-10-16T00:12:00;95602.69;;;12.96;100.00
26937;BME280;14495;48.116;11.676;2022-10-16T00:14:25;95604.25;;;12.99;100.00
26937;BME280;14495;48.116;11.676;2022-10-16T00:16:50;95609.84;;;12.94;100.00
26937;BME280;14495;48.116;11.676;2022-10-16T00:19:16;95617.91;;;12.91;100.00
26937;BME280;14495;48.116;11.676;2022-10-16T00:21:41;95616.97;;;12.92;100.00
26937;BME280;14495;48.116;11.676;2022-10-16T00:24:08;95617.38;;;12.86;100.00
26937;BME280;14495;48.116;11.676;2022-10-16T00:26:36;95620.00;;;12.86;100.00
26937;BME280;14495;48.116;11.676;2022-10-16T00:29:01;95619.50;;;12.81;100.00
26937;BME280;14495;48.116;11.676;2022-10-16T00:31:27;95610.63;;;12.70;100.00
26937;BME280;14495;48.116;11.676;2022-10-16T00:33:53;95611.19;;;12.63;100.00
26937;BME280;14495;48.116;11.676;2022-10-16T00:36:21;95615.16;;;12.68;100.00
26937;BME280;14495;48.116;11.676;2022-10-16T00:38:47;95616.72;;;12.58;100.00
26937;BME280;14495;48.116;11.676;2022-10-16T00:41:16;95617.34;;;12.62;100.00
26937;BME280;14495;48.116;11.676;2022-10-16T00:43:43;95612.94;;;12.62;100.00
26937;BME280;14495;48.116;11.676;2022-10-16T00:46:21;95611.81;;;12.66;100.00
26937;BME280;14495;48.116;11.676;2022-10-16T00:48:59;95613.19;;;12.59;100.00
26937;BME280;14495;48.116;11.676;2022-10-16T00:51:31;95611.19;;;12.63;100.00
26937;BME280;14495;48.116;11.676;2022-10-16T00:53:58;95609.38;;;12.63;100.00
26937;BME280;14495;48.116;11.676;2022-10-16T00:56:24;95614.19;;;12.69;100.00
26937;BME280;14495;48.116;11.676;2022-10-16T00:58:49;95608.00;;;12.70;100.00
26937;BME280;14495;48.116;11.676;2022-10-16T01:01:14;95608.00;;;12.70;100.00
26937;BME280;14495;48.116;11.676;2022-10-16T01:03:40;95612.72;;;12.65;100.00
26937;BME280;14495;48.116;11.676;2022-10-16T01:06:18;95612.38;;;12.83;100.00
26937;BME280;14495;48.116;11.676;2022-10-16T01:09:03;95608.19;;;12.80;100.00
26937;BME280;14495;48.116;11.676;2022-10-16T01:14:01;95621.03;;;12.96;100.00
26937;BME280;14495;48.116;11.676;2022-10-16T01:16:39;95615.06;;;12.94;100.00
26937;BME280;14495;48.116;11.676;2022-10-16T01:19:12;95623.44;;;12.99;100.00
26937;BME280;14495;48.116;11.676;2022-10-16T01:21:43;95631.22;;;12.88;100.00
26937;BME280;14495;48.116;11.676;2022-10-16T01:29:59;95644.50;;;12.73;100.00
26937;BME280;14495;48.116;11.676;2022-10-16T01:33:03;95641.03;;;12.60;100.00
26937;BME280;14495;48.116;11.676;2022-10-16T01:35:35;95635.31;;;12.55;100.00
26937;BME280;14495;48.116;11.676;2022-10-16T01:38:12;95634.25;;;12.57;100.00
26937;BME280;14495;48.116;11.676;2022-10-16T01:40:45;95627.00;;;12.61;100.00
26937;BME280;14495;48.116;11.676;2022-10-16T01:43:15;95630.06;;;12.55;100.00
26937;BME280;14495;48.116;11.676;2022-10-16T01:45:42;95629.44;;;12.51;100.00
26937;BME280;14495;48.116;11.676;2022-10-16T01:48:12;95623.69;;;12.46;100.00
26937;BME280;14495;48.116;11.676;2022-10-16T01:50:39;95629.84;;;12.45;100.00
26937;BME280;14495;48.116;11.676;2022-10-16T01:53:08;95634.88;;;12.48;100.00
26937;BME280;14495;48.116;11.676;2022-10-16T01:55:38;95630.09;;;12.42;100.00
26937;BME280;14495;48.116;11.676;2022-10-16T01:58:07;95631.00;;;12.41;100.00
26937;BME280;14495;48.116;11.676;2022-10-16T02:00:37;95631.97;;;12.27;100.00
26937;BME280;14495;48.116;11.676;2022-10-16T02:03:04;95629.66;;;12.35;100.00
26937;BME280;14495;48.116;11.676;2022-10-16T02:05:44;95622.75;;;12.34;100.00
26937;BME280;14495;48.116;11.676;2022-10-16T02:08:10;95624.41;;;12.35;100.00
26937;BME280;14495;48.116;11.676;2022-10-16T02:10:36;95619.63;;;12.29;100.00
26937;BME280;14495;48.116;11.676;2022-10-16T02:13:10;95617.63;;;12.20;100.00
26937;BME280;14495;48.116;11.676;2022-10-16T02:15:36;95616.25;;;12.40;100.00
26937;BME280;14495;48.116;11.676;2022-10-16T02:18:03;95614.13;;;12.45;100.00
26937;BME280;14495;48.116;11.676;2022-10-16T02:20:34;95613.50;;;12.42;100.00
26937;BME280;14495;48.116;11.676;2022-10-16T02:23:01;95614.38;;;12.42;100.00
26937;BME280;14495;48.116;11.676;2022-10-16T02:25:32;95620.00;;;12.49;100.00
26937;BME280;14495;48.116;11.676;2022-10-16T02:28:18;95616.03;;;12.43;100.00
26937;BME280;14495;48.116;11.676;2022-10-16T02:30:58;95616.66;;;12.47;100.00
26937;BME280;14495;48.116;11.676;2022-10-16T02:33:25;95620.72;;;12.51;100.00
26937;BME280;14495;48.116;11.676;2022-10-16T02:35:52;95614.56;;;12.52;100.00
26937;BME280;14495;48.116;11.676;2022-10-16T02:38:20;95620.63;;;12.52;100.00
26937;BME280;14495;48.116;11.676;2022-10-16T02:40:46;95615.28;;;12.54;100.00
26937;BME280;14495;48.116;11.676;2022-10-16T02:43:12;95615.16;;;12.55;100.00
26937;BME280;14495;48.116;11.676;2022-10-16T02:45:38;95619.78;;;12.52;100.00
26937;BME280;14495;48.116;11.676;2022-10-16T02:48:04;95623.56;;;12.61;100.00
26937;BME280;14495;48.116;11.676;2022-10-16T02:50:29;95619.56;;;12.68;100.00
26937;BME280;14495;48.116;11.676;2022-10-16T02:52:55;95625.84;;;12.65;100.00
26937;BME280;14495;48.116;11.676;2022-10-16T02:55:20;95628.56;;;12.64;100.00
26937;BME280;14495;48.116;11.676;2022-10-16T02:57:45;95626.19;;;12.61;100.00
26937;BME280;14495;48.116;11.676;2022-10-16T03:00:13;95630.06;;;12.55;100.00
26937;BME280;14495;48.116;11.676;2022-10-16T03:02:39;95636.25;;;12.54;100.00
26937;BME280;14495;48.116;11.676;2022-10-16T03:05:05;95640.75;;;12.52;100.00
26937;BME280;14495;48.116;11.676;2022-10-16T03:07:30;95635.31;;;12.42;100.00
26937;BME280;14495;48.116;11.676;2022-10-16T03:09:55;95635.81;;;12.47;100.00
26937;BME280;14495;48.116;11.676;2022-10-16T03:12:21;95647.16;;;12.48;100.00
26937;BME280;14495;48.116;11.676;2022-10-16T03:14:47;95635.44;;;12.41;100.00
26937;BME280;14495;48.116;11.676;2022-10-16T03:17:12;95632.38;;;12.34;100.00
26937;BME280;14495;48.116;11.676;2022-10-16T03:19:38;95630.28;;;12.26;100.00
26937;BME280;14495;48.116;11.676;2022-10-16T03:22:04;95638.88;;;12.28;100.00
26937;BME280;14495;48.116;11.676;2022-10-16T03:24:29;95638.88;;;12.15;100.00
26937;BME280;14495;48.116;11.676;2022-10-16T03:26:54;95632.47;;;12.19;100.00
26937;BME280;14495;48.116;11.676;2022-10-16T03:29:19;95639.75;;;12.16;100.00
26937;BME280;14495;48.116;11.676;2022-10-16T03:31:45;95644.75;;;12.19;100.00
26937;BME280;14495;48.116;11.676;2022-10-16T03:34:10;95633.88;;;12.12;100.00
26937;BME280;14495;48.116;11.676;2022-10-16T03:36:35;95637.63;;;12.08;100.00
26937;BME280;14495;48.116;11.676;2022-10-16T03:39:01;95645.38;;;12.10;100.00
26937;BME280;14495;48.116;11.676;2022-10-16T03:41:27;95643.19;;;12.04;100.00
26937;BME280;14495;48.116;11.676;2022-10-16T03:43:52;95643.19;;;12.04;100.00
26937;BME280;14495;48.116;11.676;2022-10-16T03:46:17;95644.75;;;12.06;100.00
26937;BME280;14495;48.116;11.676;2022-10-16T03:48:42;95640.47;;;12.05;100.00
26937;BME280;14495;48.116;11.676;2022-10-16T03:51:08;95653.16;;;12.24;100.00
26937;BME280;14495;48.116;11.676;2022-10-16T03:53:33;95658.69;;;12.19;100.00
26937;BME280;14495;48.116;11.676;2022-10-16T03:55:58;95659.31;;;12.23;100.00
26937;BME280;14495;48.116;11.676;2022-10-16T03:58:24;95662.97;;;12.46;100.00
26937;BME280;14495;48.116;11.676;2022-10-16T04:00:49;95656.06;;;12.32;100.00
26937;BME280;14495;48.116;11.676;2022-10-16T04:03:15;95658.38;;;12.37;100.00
26937;BME280;14495;48.116;11.676;2022-10-16T04:05:40;95653.56;;;12.44;100.00
26937;BME280;14495;48.116;11.676;2022-10-16T04:08:06;95644.75;;;12.45;100.00
26937;BME280;14495;48.116;11.676;2022-10-16T04:10:31;95645.66;;;12.56;100.00
26937;BME280;14495;48.116;11.676;2022-10-16T04:12:57;95648.88;;;12.73;100.00
26937;BME280;14495;48.116;11.676;2022-10-16T04:15:23;95638.00;;;12.66;100.00
26937;BME280;14495;48.116;11.676;2022-10-16T04:17:48;95643.91;;;12.57;100.00
26937;BME280;14495;48.116;11.676;2022-10-16T04:20:14;95645.47;;;12.60;100.00
26937;BME280;14495;48.116;11.676;2022-10-16T04:22:39;95645.44;;;12.72;100.00
26937;BME280;14495;48.116;11.676;2022-10-16T04:25:05;95642.81;;;12.72;100.00
26937;BME280;14495;48.116;11.676;2022-10-16T04:27:30;95639.75;;;12.79;100.00
26937;BME280;14495;48.116;11.676;2022-10-16T04:29:57;95645.78;;;12.68;100.00
26937;BME280;14495;48.116;11.676;2022-10-16T04:32:22;95657.09;;;12.68;100.00
26937;BME280;14495;48.116;11.676;2022-10-16T04:34:47;95656.66;;;12.74;100.00
26937;BME280;14495;48.116;11.676;2022-10-16T04:37:13;95655.72;;;12.75;100.00
26937;BME280;14495;48.116;11.676;2022-10-16T04:39:38;95651.16;;;12.90;100.00
26937;BME280;14495;48.116;11.676;2022-10-16T04:42:03;95660.41;;;12.83;100.00
26937;BME280;14495;48.116;11.676;2022-10-16T04:44:29;95659.66;;;12.94;100.00
26937;BME280;14495;48.116;11.676;2022-10-16T04:46:54;95646.34;;;12.84;100.00
26937;BME280;14495;48.116;11.676;2022-10-16T04:49:19;95649.72;;;12.86;100.00
26937;BME280;14495;48.116;11.676;2022-10-16T04:51:45;95654.53;;;12.80;100.00
26937;BME280;14495;48.116;11.676;2022-10-16T04:54:10;95652.84;;;12.79;100.00
26937;BME280;14495;48.116;11.676;2022-10-16T04:56:36;95658.81;;;12.81;100.00
26937;BME280;14495;48.116;11.676;2022-10-16T04:59:08;95662.03;;;12.97;100.00
26937;BME280;14495;48.116;11.676;2022-10-16T05:01:34;95654.63;;;12.91;100.00
26937;BME280;14495;48.116;11.676;2022-10-16T05:03:59;95646.97;;;12.88;100.00
26937;BME280;14495;48.116;11.676;2022-10-16T05:06:24;95646.13;;;12.87;100.00
26937;BME280;14495;48.116;11.676;2022-10-16T05:08:49;95643.97;;;12.81;100.00
26937;BME280;14495;48.116;11.676;2022-10-16T05:11:15;95647.84;;;12.75;100.00
26937;BME280;14495;48.116;11.676;2022-10-16T05:13:40;95651.19;;;12.77;100.00
26937;BME280;14495;48.116;11.676;2022-10-16T05:16:05;95647.63;;;12.79;100.00
26937;BME280;14495;48.116;11.676;2022-10-16T05:18:31;95654.41;;;12.94;100.00
26937;BME280;14495;48.116;11.676;2022-10-16T05:20:56;95646.84;;;12.89;100.00
26937;BME280;14495;48.116;11.676;2022-10-16T05:23:22;95650.31;;;12.90;100.00
26937;BME280;14495;48.116;11.676;2022-10-16T05:25:57;95649.66;;;12.99;100.00
26937;BME280;14495;48.116;11.676;2022-10-16T05:28:24;95641.69;;;13.01;100.00
26937;BME280;14495;48.116;11.676;2022-10-16T05:30:50;95646.00;;;13.02;100.00
26937;BME280;14495;48.116;11.676;2022-10-16T05:33:15;95653.03;;;13.01;100.00
26937;BME280;14495;48.116;11.676;2022-10-16T05:35:41;95660.75;;;13.03;100.00
26937;BME280;14495;48.116;11.676;2022-10-16T05:38:07;95662.63;;;13.13;100.00
26937;BME280;14495;48.116;11.676;2022-10-16T05:40:32;95660.97;;;13.12;100.00
26937;BME280;14495;48.116;11.676;2022-10-16T05:42:58;95663.47;;;13.14;100.00
26937;BME280;14495;48.116;11.676;2022-10-16T05:45:23;95672.91;;;13.17;100.00
26937;BME280;14495;48.116;11.676;2022-10-16T05:47:48;95668.38;;;13.19;100.00
26937;BME280;14495;48.116;11.676;2022-10-16T05:50:14;95671.81;;;13.32;100.00
26937;BME280;14495;48.116;11.676;2022-10-16T05:52:39;95681.28;;;13.22;100.00
26937;BME280;14495;48.116;11.676;2022-10-16T05:55:05;95687.78;;;13.29;100.00
26937;BME280;14495;48.116;11.676;2022-10-16T05:57:30;95689.38;;;13.19;100.00
26937;BME280;14495;48.116;11.676;2022-10-16T05:59:56;95687.94;;;13.14;100.00
26937;BME280;14495;48.116;11.676;2022-10-16T06:02:21;95681.09;;;13.12;100.00
26937;BME280;14495;48.116;11.676;2022-10-16T06:04:46;95686.25;;;13.13;100.00
26937;BME280;14495;48.116;11.676;2022-10-16T06:07:12;95694.63;;;13.19;100.00
26937;BME280;14495;48.116;11.676;2022-10-16T06:09:37;95696.53;;;13.17;100.00
26937;BME280;14495;48.116;11.676;2022-10-16T06:12:02;95697.31;;;13.30;100.00
26937;BME280;14495;48.116;11.676;2022-10-16T06:14:28;95690.72;;;13.37;100.00
26937;BME280;14495;48.116;11.676;2022-10-16T06:16:53;95694.25;;;13.36;100.00
26937;BME280;14495;48.116;11.676;2022-10-16T06:19:18;95698.91;;;13.32;100.00
26937;BME280;14495;48.116;11.676;2022-10-16T06:21:44;95701.94;;;13.39;100.00
26937;BME280;14495;48.116;11.676;2022-10-16T06:24:10;95704.34;;;13.42;100.00
26937;BME280;14495;48.116;11.676;2022-10-16T06:26:35;95705.16;;;13.67;100.00
26937;BME280;14495;48.116;11.676;2022-10-16T06:29:01;95707.34;;;13.73;100.00
26937;BME280;14495;48.116;11.676;2022-10-16T06:31:27;95699.41;;;13.62;100.00
26937;BME280;14495;48.116;11.676;2022-10-16T06:33:55;95706.06;;;13.54;100.00
26937;BME280;14495;48.116;11.676;2022-10-16T06:36:21;95709.91;;;13.62;100.00
26937;BME280;14495;48.116;11.676;2022-10-16T06:38:47;95714.78;;;13.79;100.00
26937;BME280;14495;48.116;11.676;2022-10-16T06:41:16;95719.81;;;13.93;100.00
26937;BME280;14495;48.116;11.676;2022-10-16T06:43:41;95726.59;;;14.09;100.00
26937;BME280;14495;48.116;11.676;2022-10-16T06:46:09;95729.19;;;13.98;100.00
26937;BME280;14495;48.116;11.676;2022-10-16T06:48:36;95732.78;;;14.08;100.00
26937;BME280;14495;48.116;11.676;2022-10-16T06:53:32;95741.31;;;14.23;100.00
26937;BME280;14495;48.116;11.676;2022-10-16T06:55:58;95737.81;;;14.11;100.00
26937;BME280;14495;48.116;11.676;2022-10-16T06:58:23;95741.28;;;14.11;100.00
26937;BME280;14495;48.116;11.676;2022-10-16T07:00:49;95745.72;;;14.22;100.00
26937;BME280;14495;48.116;11.676;2022-10-16T07:03:19;95748.97;;;14.26;100.00
26937;BME280;14495;48.116;11.676;2022-10-16T07:05:45;95742.16;;;14.23;100.00
26937;BME280;14495;48.116;11.676;2022-10-16T07:08:10;95742.16;;;14.23;100.00
26937;BME280;14495;48.116;11.676;2022-10-16T07:10:35;95750.31;;;14.43;100.00
26937;BME280;14495;48.116;11.676;2022-10-16T07:13:01;95765.00;;;14.69;100.00
26937;BME280;14495;48.116;11.676;2022-10-16T07:15:27;95761.91;;;14.98;100.00
26937;BME280;14495;48.116;11.676;2022-10-16T07:17:52;95765.63;;;15.18;100.00
26937;BME280;14495;48.116;11.676;2022-10-16T07:20:18;95767.41;;;15.29;100.00
26937;BME280;14495;48.116;11.676;2022-10-16T07:22:43;95761.88;;;15.32;100.00
26937;BME280;14495;48.116;11.676;2022-10-16T07:25:09;95763.75;;;15.53;100.00
26937;BME280;14495;48.116;11.676;2022-10-16T07:27:35;95771.97;;;15.93;100.00
26937;BME280;14495;48.116;11.676;2022-10-16T07:30:00;95760.06;;;16.10;100.00
26937;BME280;14495;48.116;11.676;2022-10-16T07:32:26;95765.53;;;16.39;100.00
26937;BME280;14495;48.116;11.676;2022-10-16T07:34:52;95767.66;;;16.67;100.00
26937;BME280;14495;48.116;11.676;2022-10-16T07:37:18;95766.19;;;16.74;100.00
26937;BME280;14495;48.116;11.676;2022-10-16T07:39:43;95775.75;;;16.75;100.00
26937;BME280;14495;48.116;11.676;2022-10-16T07:42:08;95787.38;;;16.84;100.00
26937;BME280;14495;48.116;11.676;2022-10-16T07:44:34;95778.63;;;16.83;100.00
26937;BME280;14495;48.116;11.676;2022-10-16T07:46:59;95791.41;;;17.09;100.00
26937;BME280;14495;48.116;11.676;2022-10-16T07:49:24;95784.31;;;17.40;100.00
26937;BME280;14495;48.116;11.676;2022-10-16T07:51:50;95788.00;;;17.68;100.00
26937;BME280;14495;48.116;11.676;2022-10-16T07:54:15;95800.63;;;17.95;100.00
26937;BME280;14495;48.116;11.676;2022-10-16T07:56:41;95800.06;;;18.11;100.00
26937;BME280;14495;48.116;11.676;2022-10-16T07:59:06;95798.41;;;18.30;100.00
26937;BME280;14495;48.116;11.676;2022-10-16T08:01:31;95800.91;;;18.41;100.00
26937;BME280;14495;48.116;11.676;2022-10-16T08:03:57;95804.13;;;18.35;100.00
26937;BME280;14495;48.116;11.676;2022-10-16T08:06:22;95813.84;;;18.05;100.00
26937;BME280;14495;48.116;11.676;2022-10-16T08:08:48;95812.03;;;18.06;100.00
26937;BME280;14495;48.116;11.676;2022-10-16T08:11:14;95806.63;;;18.37;100.00
26937;BME280;14495;48.116;11.676;2022-10-16T08:13:40;95816.94;;;18.30;100.00
26937;BME280;14495;48.116;11.676;2022-10-16T08:16:06;95810.50;;;18.62;100.00
26937;BME280;14495;48.116;11.676;2022-10-16T08:18:37;95809.94;;;18.87;100.00
26937;BME280;14495;48.116;11.676;2022-10-16T08:21:03;95815.31;;;19.15;100.00
26937;BME280;14495;48.116;11.676;2022-10-16T08:23:29;95806.31;;;19.45;100.00
26937;BME280;14495;48.116;11.676;2022-10-16T08:25:56;95807.34;;;19.62;100.00
26937;BME280;14495;48.116;11.676;2022-10-16T08:28:22;95803.72;;;19.91;100.00
26937;BME280;14495;48.116;11.676;2022-10-16T08:30:47;95814.22;;;20.11;100.00
26937;BME280;14495;48.116;11.676;2022-10-16T08:33:13;95812.47;;;20.37;100.00
26937;BME280;14495;48.116;11.676;2022-10-16T08:35:38;95813.53;;;20.44;100.00
26937;BME280;14495;48.116;11.676;2022-10-16T08:38:05;95819.84;;;20.79;100.00
26937;BME280;14495;48.116;11.676;2022-10-16T08:40:32;95822.59;;;21.14;100.00
26937;BME280;14495;48.116;11.676;2022-10-16T08:48:59;95827.25;;;24.34;68.56
26937;BME280;14495;48.116;11.676;2022-10-16T08:51:30;95825.81;;;25.00;63.35
26937;BME280;14495;48.116;11.676;2022-10-16T08:53:58;95827.22;;;25.49;61.48
26937;BME280;14495;48.116;11.676;2022-10-16T08:56:25;95829.84;;;26.23;58.59
26937;BME280;14495;48.116;11.676;2022-10-16T08:58:52;95834.66;;;26.28;57.34
26937;BME280;14495;48.116;11.676;2022-10-16T09:01:20;95828.63;;;27.06;55.29
26937;BME280;14495;48.116;11.676;2022-10-16T09:09:39;95842.56;;;26.94;54.33
26937;BME280;14495;48.116;11.676;2022-10-16T09:15:44;95847.50;;;27.41;53.58
26937;BME280;14495;48.116;11.676;2022-10-16T09:21:15;95846.22;;;28.48;49.80
26937;BME280;14495;48.116;11.676;2022-10-16T09:23:41;95857.59;;;28.43;49.67
26937;BME280;14495;48.116;11.676;2022-10-16T09:26:13;95848.22;;;28.94;48.66
26937;BME280;14495;48.116;11.676;2022-10-16T09:28:40;95845.31;;;29.09;49.11
26937;BME280;14495;48.116;11.676;2022-10-16T09:31:13;95845.22;;;28.01;49.35
26937;BME280;14495;48.116;11.676;2022-10-16T09:33:40;95840.31;;;28.79;48.06
26937;BME280;14495;48.116;11.676;2022-10-16T09:36:06;95844.22;;;27.73;49.32
26937;BME280;14495;48.116;11.676;2022-10-16T09:38:35;95845.53;;;28.26;48.47
26937;BME280;14495;48.116;11.676;2022-10-16T09:41:09;95849.00;;;28.68;47.82
26937;BME280;14495;48.116;11.676;2022-10-16T09:43:49;95852.38;;;29.17;45.96
26937;BME280;14495;48.116;11.676;2022-10-16T09:48:56;95849.47;;;29.05;45.06
26937;BME280;14495;48.116;11.676;2022-10-16T09:51:29;95848.28;;;30.26;42.99
26937;BME280;14495;48.116;11.676;2022-10-16T09:54:00;95850.91;;;28.94;45.02
26937;BME280;14495;48.116;11.676;2022-10-16T09:56:31;95844.47;;;29.68;43.93
26937;BME280;14495;48.116;11.676;2022-10-16T09:59:00;95855.78;;;30.17;42.30
26937;BME280;14495;48.116;11.676;2022-10-16T10:01:38;95860.59;;;30.60;41.75
26937;BME280;14495;48.116;11.676;2022-10-16T10:04:05;95856.56;;;30.76;40.79
26937;BME280;14495;48.116;11.676;2022-10-16T10:06:57;95865.66;;;30.82;40.55
26937;BME280;14495;48.116;11.676;2022-10-16T10:09:24;95866.91;;;30.79;40.82
26937;BME280;14495;48.116;11.676;2022-10-16T10:12:02;95863.84;;;31.83;39.49
26937;BME280;14495;48.116;11.676;2022-10-16T10:19:39;95865.38;;;32.53;36.68
26937;BME280;14495;48.116;11.676;2022-10-16T10:36:38;95858.84;;;30.34;37.60
26937;BME280;14495;48.116;11.676;2022-10-16T10:39:25;95861.25;;;30.56;37.65
26937;BME280;14495;48.116;11.676;2022-10-16T10:42:18;95865.78;;;31.00;36.97
26937;BME280;14495;48.116;11.676;2022-10-16T10:47:40;95853.88;;;32.76;34.78
26937;BME280;14495;48.116;11.676;2022-10-16T10:50:22;95855.09;;;33.04;34.36
26937;BME280;14495;48.116;11.676;2022-10-16T10:53:22;95850.59;;;33.51;33.39
26937;BME280;14495;48.116;11.676;2022-10-16T10:58:56;95857.28;;;32.16;34.03
26937;BME280;14495;48.116;11.676;2022-10-16T11:01:39;95855.00;;;33.88;33.82
26937;BME280;14495;48.116;11.676;2022-10-16T11:07:29;95855.84;;;33.77;31.62
26937;BME280;14495;48.116;11.676;2022-10-16T11:10:02;95858.53;;;34.93;31.75
26937;BME280;14495;48.116;11.676;2022-10-16T11:12:33;95859.41;;;36.17;30.49
26937;BME280;14495;48.116;11.676;2022-10-16T11:15:11;95863.63;;;36.47;28.82
26937;BME280;14495;48.116;11.676;2022-10-16T11:17:41;95852.69;;;33.14;29.48
26937;BME280;14495;48.116;11.676;2022-10-16T11:20:26;95861.94;;;33.72;30.02
26937;BME280;14495;48.116;11.676;2022-10-16T11:25:24;95857.44;;;33.42;29.84
26937;BME280;14495;48.116;11.676;2022-10-16T11:28:11;95858.66;;;33.94;29.06
26937;BME280;14495;48.116;11.676;2022-10-16T11:30:52;95849.16;;;35.18;28.56
26937;BME280;14495;48.116;11.676;2022-10-16T11:38:49;95854.16;;;35.21;27.84
26937;BME280;14495;48.116;11.676;2022-10-16T11:41:41;95850.41;;;34.53;29.73
26937;BME280;14495;48.116;11.676;2022-10-16T11:49:31;95845.28;;;34.97;29.52
26937;BME280;14495;48.116;11.676;2022-10-16T11:52:15;95849.63;;;35.43;26.27
26937;BME280;14495;48.116;11.676;2022-10-16T11:54:56;95849.03;;;34.38;27.54
26937;BME280;14495;48.116;11.676;2022-10-16T11:57:27;95838.22;;;34.15;27.83
26937;BME280;14495;48.116;11.676;2022-10-16T12:02:26;95839.69;;;33.04;29.30
26937;BME280;14495;48.116;11.676;2022-10-16T12:05:06;95838.34;;;33.96;28.13
26937;BME280;14495;48.116;11.676;2022-10-16T12:07:37;95846.72;;;34.30;28.73
26937;BME280;14495;48.116;11.676;2022-10-16T12:10:31;95839.84;;;34.27;27.23
26937;BME280;14495;48.116;11.676;2022-10-16T12:13:02;95842.81;;;34.95;28.38
26937;BME280;14495;48.116;11.676;2022-10-16T12:15:30;95837.13;;;33.09;28.64
26937;BME280;14495;48.116;11.676;2022-10-16T12:17:56;95839.25;;;31.73;29.27
26937;BME280;14495;48.116;11.676;2022-10-16T12:20:30;95839.69;;;33.04;29.02
26937;BME280;14495;48.116;11.676;2022-10-16T12:23:00;95841.28;;;33.12;28.55
26937;BME280;14495;48.116;11.676;2022-10-16T12:25:39;95836.56;;;33.19;28.42
26937;BME280;14495;48.116;11.676;2022-10-16T12:28:20;95834.00;;;33.36;27.84
26937;BME280;14495;48.116;11.676;2022-10-16T12:30:54;95846.25;;;32.17;28.77
26937;BME280;14495;48.116;11.676;2022-10-16T12:33:26;95842.63;;;33.03;27.78
26937;BME280;14495;48.116;11.676;2022-10-16T12:35:53;95842.09;;;31.78;28.91
26937;BME280;14495;48.116;11.676;2022-10-16T12:38:26;95832.97;;;31.29;28.97
26937;BME280;14495;48.116;11.676;2022-10-16T12:41:03;95829.59;;;32.69;28.96
26937;BME280;14495;48.116;11.676;2022-10-16T12:46:22;95842.41;;;29.71;31.39
26937;BME280;14495;48.116;11.676;2022-10-16T12:48:48;95832.31;;;29.26;33.42
26937;BME280;14495;48.116;11.676;2022-10-16T12:51:32;95833.53;;;28.22;33.76
26937;BME280;14495;48.116;11.676;2022-10-16T12:54:14;95832.16;;;27.91;34.17
26937;BME280;14495;48.116;11.676;2022-10-16T12:59:35;95842.16;;;25.88;37.69
26937;BME280;14495;48.116;11.676;2022-10-16T13:11:08;95826.28;;;25.27;39.78
26937;BME280;14495;48.116;11.676;2022-10-16T13:19:23;95836.88;;;24.43;41.15
26937;BME280;14495;48.116;11.676;2022-10-16T13:22:21;95837.28;;;24.31;40.94
26937;BME280;14495;48.116;11.676;2022-10-16T13:25:16;95834.75;;;24.69;41.29
26937;BME280;14495;48.116;11.676;2022-10-16T13:28:02;95838.41;;;24.68;41.18
26937;BME280;14495;48.116;11.676;2022-10-16T13:30:30;95839.47;;;24.28;40.62
26937;BME280;14495;48.116;11.676;2022-10-16T13:33:01;95842.34;;;24.26;41.74
26937;BME280;14495;48.116;11.676;2022-10-16T13:35:29;95844.91;;;24.11;41.10
26937;BME280;14495;48.116;11.676;2022-10-16T13:38:16;95845.44;;;24.07;40.86
26937;BME280;14495;48.116;11.676;2022-10-16T13:43:20;95846.88;;;23.86;41.76
26937;BME280;14495;48.116;11.676;2022-10-16T13:45:58;95848.56;;;23.71;42.94
26937;BME280;14495;48.116;11.676;2022-10-16T13:48:24;95845.38;;;23.76;43.46
26937;BME280;14495;48.116;11.676;2022-10-16T13:53:25;95854.94;;;23.62;43.01
26937;BME280;14495;48.116;11.676;2022-10-16T13:55:51;95848.56;;;23.63;42.39
26937;BME280;14495;48.116;11.676;2022-10-16T13:58:16;95847.59;;;23.55;44.06
26937;BME280;14495;48.116;11.676;2022-10-16T14:00:54;95848.97;;;23.43;44.32
26937;BME280;14495;48.116;11.676;2022-10-16T14:03:20;95850.00;;;23.34;43.75
26937;BME280;14495;48.116;11.676;2022-10-16T14:05:53;95860.31;;;23.29;44.75
26937;BME280;14495;48.116;11.676;2022-10-16T14:08:20;95860.31;;;23.45;43.68
26937;BME280;14495;48.116;11.676;2022-10-16T14:10:51;95852.59;;;23.50;44.97
26937;BME280;14495;48.116;11.676;2022-10-16T14:13:28;95870.59;;;23.57;44.01
26937;BME280;14495;48.116;11.676;2022-10-16T14:15:54;95866.00;;;23.34;45.17
26937;BME280;14495;48.116;11.676;2022-10-16T14:18:25;95862.31;;;23.43;44.17
26937;BME280;14495;48.116;11.676;2022-10-16T14:20:51;95865.31;;;23.40;45.21
26937;BME280;14495;48.116;11.676;2022-10-16T14:23:29;95869.66;;;23.25;45.60
26937;BME280;14495;48.116;11.676;2022-10-16T14:28:37;95861.66;;;23.16;45.19
26937;BME280;14495;48.116;11.676;2022-10-16T14:31:31;95861.66;;;23.16;45.23
26937;BME280;14495;48.116;11.676;2022-10-16T14:33:57;95848.50;;;23.15;45.39
26937;BME280;14495;48.116;11.676;2022-10-16T14:36:24;95863.16;;;23.03;46.50
26937;BME280;14495;48.116;11.676;2022-10-16T14:38:59;95865.66;;;22.96;46.09